Time;durP1;ratioP1;P1;durP2;ratioP2;P2;SDS_P1;SDS_P2;PMS_P1;PMS_P2;Temp;Humidity;BMP_temperature;BMP_pressure;BME280_temperature;BME280_humidity;BME280_pressure;Samples;Min_cycle;Max_cycle;Signal;HPM_P1;HPM_P2
2023/03/31 00:00:10;;;;;;;33.88;30.55;;;;;;;2.34;100.00;101064.81;5019836;28;20056;-80
2023/03/31 00:02:40;;;;;;;30.02;27.42;;;;;;;2.73;100.00;101068.09;5022106;28;20046;-80
2023/03/31 00:05:07;;;;;;;31.98;29.10;;;;;;;3.19;100.00;101064.50;5018378;28;20486;-80
2023/03/31 00:07:36;;;;;;;33.30;30.13;;;;;;;3.19;100.00;101058.41;5017157;28;20061;-80
2023/03/31 00:10:05;;;;;;;48.53;45.22;;;;;;;3.21;100.00;101053.84;5019746;28;20056;-81
2023/03/31 00:12:31;;;;;;;40.55;37.70;;;;;;;3.42;100.00;101048.31;5023014;28;20046;-80
2023/03/31 00:15:00;;;;;;;55.08;49.25;;;;;;;3.11;100.00;101048.66;5019900;28;20053;-80
2023/03/31 00:17:26;;;;;;;61.30;48.05;;;;;;;3.39;100.00;101038.91;5014096;28;20516;-80
2023/03/31 00:19:58;;;;;;;34.67;31.58;;;;;;;3.55;100.00;101032.97;5016900;28;20072;-80
2023/03/31 00:22:26;;;;;;;30.88;28.52;;;;;;;3.48;100.00;101034.56;5019938;28;20042;-80
2023/03/31 00:24:53;;;;;;;61.83;44.13;;;;;;;3.72;100.00;101035.72;5020966;28;20122;-80
2023/03/31 00:27:20;;;;;;;60.50;45.95;;;;;;;3.84;100.00;101030.06;5024205;28;20072;-80
2023/03/31 00:29:49;;;;;;;69.80;49.55;;;;;;;3.53;100.00;101024.41;5009812;28;20053;-81
2023/03/31 00:32:17;;;;;;;86.10;50.50;;;;;;;3.66;100.00;101026.63;5015353;28;20054;-80
2023/03/31 00:34:46;;;;;;;102.13;53.67;;;;;;;3.72;100.00;101020.75;5022897;28;20125;-80
2023/03/31 00:37:14;;;;;;;149.55;69.07;;;;;;;3.56;100.00;101013.59;5014506;28;20057;-80
2023/03/31 00:39:42;;;;;;;77.55;46.85;;;;;;;3.65;100.00;101014.50;5019037;28;20439;-80
2023/03/31 00:42:11;;;;;;;53.00;39.22;;;;;;;3.91;100.00;101006.63;5019383;28;20056;-81
2023/03/31 00:45:00;;;;;;;35.75;32.95;;;;;;;3.78;100.00;101009.66;5014534;28;20030;-80
2023/03/31 00:47:29;;;;;;;33.05;30.70;;;;;;;3.79;100.00;101011.31;5019674;28;20046;-80
2023/03/31 00:49:57;;;;;;;34.80;32.58;;;;;;;3.91;100.00;101009.25;5016267;28;20042;-80
2023/03/31 00:52:34;;;;;;;29.25;27.45;;;;;;;4.04;100.00;101009.63;5020904;28;20058;-81
2023/03/31 00:55:05;;;;;;;44.95;39.08;;;;;;;3.87;100.00;101002.63;5016635;28;20514;-80
2023/03/31 00:57:38;;;;;;;46.15;38.55;;;;;;;3.50;100.00;101008.97;5019266;28;20046;-80
2023/03/31 01:00:13;;;;;;;42.38;37.45;;;;;;;3.86;100.00;101003.63;5018220;28;20066;-80
2023/03/31 01:02:50;;;;;;;39.53;36.28;;;;;;;4.01;100.00;101004.69;5014337;28;20061;-80
2023/03/31 01:05:18;;;;;;;43.20;39.33;;;;;;;4.11;100.00;101000.16;5019139;28;20053;-81
2023/03/31 01:07:49;;;;;;;46.55;42.22;;;;;;;4.02;100.00;100998.44;5020417;28;20065;-81
2023/03/31 01:10:16;;;;;;;50.08;46.08;;;;;;;4.04;100.00;100990.41;5012392;28;20050;-81
2023/03/31 01:12:47;;;;;;;39.83;37.22;;;;;;;3.78;100.00;100996.53;5019888;28;20069;-80
2023/03/31 01:15:14;;;;;;;31.92;29.58;;;;;;;3.44;100.00;100985.94;5016701;28;20046;-80
2023/03/31 01:17:44;;;;;;;32.45;30.52;;;;;;;3.76;100.00;100985.34;5019155;28;20072;-80
2023/03/31 01:20:22;;;;;;;33.40;31.48;;;;;;;3.83;100.00;100978.47;5018962;28;20483;-80
2023/03/31 01:23:24;;;;;;;38.08;35.78;;;;;;;3.71;100.00;100973.66;5018809;28;20466;-80
2023/03/31 01:26:40;;;;;;;38.92;36.55;;;;;;;3.41;100.00;100980.97;5015180;28;20054;-80
2023/03/31 01:29:21;;;;;;;36.15;33.92;;;;;;;3.64;100.00;100976.06;4996655;28;20054;-80
2023/03/31 01:32:05;;;;;;;35.42;33.22;;;;;;;3.42;100.00;100964.28;5000821;28;20069;-81
2023/03/31 01:35:15;;;;;;;32.28;30.38;;;;;;;3.20;100.00;100965.56;5012022;28;20050;-81
2023/03/31 01:38:26;;;;;;;36.88;34.78;;;;;;;3.54;100.00;100965.66;5015175;28;20102;-80
2023/03/31 01:41:13;;;;;;;41.80;39.30;;;;;;;3.55;100.00;100963.88;4970183;28;20046;-80
2023/03/31 01:43:47;;;;;;;36.58;34.25;;;;;;;3.11;100.00;100953.34;5015839;28;20058;-81
2023/03/31 01:46:23;;;;;;;50.53;46.90;;;;;;;3.62;100.00;100963.06;5015988;28;20054;-80
2023/03/31 01:49:00;;;;;;;40.22;37.40;;;;;;;3.53;100.00;100960.56;5019776;28;20062;-81
2023/03/31 01:51:33;;;;;;;36.88;34.28;;;;;;;3.83;100.00;100956.63;5020156;28;20488;-80
2023/03/31 01:54:08;;;;;;;56.17;50.70;;;;;;;3.86;100.00;100961.59;5019626;28;20077;-81
2023/03/31 01:56:41;;;;;;;51.17;47.08;;;;;;;3.89;100.00;100963.91;5021355;28;20046;-81
2023/03/31 01:59:12;;;;;;;49.55;45.15;;;;;;;3.89;100.00;100959.47;5018393;28;20054;-80
2023/03/31 02:01:43;;;;;;;52.00;48.17;;;;;;;3.89;100.00;100959.47;5028737;28;20090;-80
2023/03/31 02:04:16;;;;;;;54.60;51.00;;;;;;;3.90;100.00;100955.88;5020723;28;20590;-81
2023/03/31 02:06:52;;;;;;;41.80;38.70;;;;;;;3.87;100.00;100952.72;5022220;28;20050;-81
2023/03/31 02:09:22;;;;;;;33.78;31.15;;;;;;;3.81;100.00;100948.94;5021809;28;20057;-80
2023/03/31 02:11:55;;;;;;;46.58;43.28;;;;;;;3.93;100.00;100943.38;5028610;28;20050;-81
2023/03/31 02:14:25;;;;;;;46.22;42.90;;;;;;;4.10;100.00;100950.38;5016581;28;20046;-81
2023/03/31 02:16:58;;;;;;;40.25;37.45;;;;;;;4.15;100.00;100952.53;5023473;28;20050;-80
2023/03/31 02:19:28;;;;;;;47.28;44.22;;;;;;;4.25;100.00;100948.78;5017526;28;20051;-81
2023/03/31 02:21:55;;;;;;;64.50;60.97;;;;;;;4.17;100.00;100940.84;5022985;28;20046;-80
2023/03/31 02:24:24;;;;;;;70.82;67.22;;;;;;;4.26;100.00;100944.34;5022491;28;20038;-80
2023/03/31 02:27:01;;;;;;;56.42;53.53;;;;;;;4.12;100.00;100933.47;5019976;28;20050;-81
2023/03/31 02:29:28;;;;;;;48.03;45.42;;;;;;;4.16;100.00;100941.84;5019554;28;20050;-80
2023/03/31 02:32:01;;;;;;;52.55;49.45;;;;;;;4.25;100.00;100932.19;5028493;28;20038;-81
2023/03/31 02:34:27;;;;;;;50.58;47.58;;;;;;;4.18;100.00;100926.75;5021095;28;20050;-81
2023/03/31 02:36:54;;;;;;;49.22;45.65;;;;;;;4.34;100.00;100924.16;5019400;28;20042;-81
2023/03/31 02:39:25;;;;;;;56.10;51.65;;;;;;;4.43;100.00;100921.56;5021528;28;20046;-81
2023/03/31 02:41:54;;;;;;;54.55;50.08;;;;;;;4.25;100.00;100919.84;5014032;28;20047;-81
2023/03/31 02:44:21;;;;;;;60.10;56.13;;;;;;;4.28;100.00;100918.72;5009058;28;20381;-81
2023/03/31 02:46:49;;;;;;;44.17;40.15;;;;;;;4.07;100.00;100919.97;5015973;28;20050;-80
2023/03/31 02:49:17;;;;;;;43.88;40.50;;;;;;;4.15;100.00;100913.91;5022503;28;20050;-81
2023/03/31 02:52:09;;;;;;;45.83;43.00;;;;;;;4.11;100.00;100923.09;5021876;28;20046;-81
2023/03/31 02:55:00;;;;;;;42.13;39.58;;;;;;;4.47;100.00;100925.50;5016841;28;20050;-80
2023/03/31 02:57:53;;;;;;;40.28;38.17;;;;;;;4.46;100.00;100922.06;5018713;28;20046;-80
2023/03/31 03:00:27;;;;;;;37.40;35.05;;;;;;;4.45;100.00;100917.78;4976597;28;20043;-81
2023/03/31 03:03:10;;;;;;;37.03;34.92;;;;;;;4.55;100.00;100925.53;5015894;28;20046;-81
2023/03/31 03:05:44;;;;;;;39.70;37.15;;;;;;;4.44;100.00;100916.13;5019618;28;20050;-81
2023/03/31 03:08:23;;;;;;;39.22;36.95;;;;;;;4.59;100.00;100934.72;5007682;28;20058;-81
2023/03/31 03:11:01;;;;;;;35.25;32.80;;;;;;;4.52;100.00;100933.75;5017146;28;20073;-81
2023/03/31 03:13:38;;;;;;;29.02;27.02;;;;;;;4.31;100.00;100936.81;5021596;28;20049;-80
2023/03/31 03:16:12;;;;;;;27.60;25.67;;;;;;;4.47;100.00;100934.22;5015934;28;20054;-80
2023/03/31 03:18:39;;;;;;;26.02;24.23;;;;;;;4.49;100.00;100940.16;5022636;28;20618;-80
2023/03/31 03:21:06;;;;;;;26.67;24.88;;;;;;;4.45;100.00;100941.47;5017672;28;20054;-81
2023/03/31 03:23:33;;;;;;;26.67;24.60;;;;;;;4.56;100.00;100942.94;5019603;28;20082;-80
2023/03/31 03:26:00;;;;;;;25.63;23.55;;;;;;;4.48;100.00;100937.66;5026153;28;20096;-80
2023/03/31 03:28:26;;;;;;;29.13;27.02;;;;;;;4.55;100.00;100938.69;5018698;28;20050;-81
2023/03/31 03:30:55;;;;;;;27.88;25.75;;;;;;;4.56;100.00;100937.69;5027446;28;20053;-81
2023/03/31 03:33:23;;;;;;;31.42;28.67;;;;;;;4.62;100.00;100933.59;5018881;28;20050;-81
2023/03/31 03:35:50;;;;;;;31.27;28.77;;;;;;;4.46;100.00;100937.03;5024737;28;20050;-81
2023/03/31 03:38:17;;;;;;;31.15;28.58;;;;;;;4.25;100.00;100947.97;5016164;28;20050;-81
2023/03/31 03:40:44;;;;;;;36.72;33.40;;;;;;;4.32;100.00;100949.78;5022690;28;20042;-80
2023/03/31 03:43:10;;;;;;;42.30;38.88;;;;;;;4.59;100.00;100943.44;5018729;28;20112;-80
2023/03/31 03:45:37;;;;;;;38.63;35.13;;;;;;;4.57;100.00;100945.44;5018932;28;20046;-81
2023/03/31 03:48:06;;;;;;;39.33;35.60;;;;;;;4.47;100.00;100952.63;5010827;28;20062;-80
2023/03/31 03:50:36;;;;;;;36.28;33.22;;;;;;;4.59;100.00;100963.69;5007647;28;20050;-81
2023/03/31 03:53:03;;;;;;;40.20;36.85;;;;;;;4.64;100.00;100957.94;5011645;28;20050;-80
2023/03/31 03:55:29;;;;;;;35.92;33.22;;;;;;;4.63;100.00;100951.00;5013079;28;20049;-81
2023/03/31 03:57:56;;;;;;;34.58;32.13;;;;;;;4.47;100.00;100957.88;5010661;28;20073;-81
2023/03/31 04:00:23;;;;;;;31.60;28.90;;;;;;;4.27;100.00;100959.16;5003097;28;20078;-81
2023/03/31 04:02:50;;;;;;;33.95;31.17;;;;;;;4.48;100.00;100963.97;5008850;28;20081;-81
2023/03/31 04:05:18;;;;;;;35.78;32.83;;;;;;;4.35;100.00;100973.13;5013632;28;20066;-81
2023/03/31 04:07:45;;;;;;;33.28;30.48;;;;;;;4.44;100.00;100965.28;5009809;28;20050;-82
2023/03/31 04:10:11;;;;;;;34.63;31.50;;;;;;;4.59;100.00;100972.38;5008827;28;20079;-81
2023/03/31 04:12:38;;;;;;;30.17;27.38;;;;;;;4.66;100.00;100971.75;5010563;28;20097;-80
2023/03/31 04:15:06;;;;;;;31.08;27.92;;;;;;;4.53;100.00;100977.47;5012840;28;20046;-81
2023/03/31 04:17:33;;;;;;;33.28;29.98;;;;;;;4.62;100.00;100983.59;5013886;28;20039;-81
2023/03/31 04:20:04;;;;;;;41.33;30.15;;;;;;;4.55;100.00;100972.88;5008344;28;20078;-80
2023/03/31 04:22:34;;;;;;;41.25;37.80;;;;;;;4.45;100.00;100970.41;5010604;28;20043;-80
2023/03/31 04:25:02;;;;;;;43.78;39.58;;;;;;;4.42;100.00;100964.59;5008669;28;20504;-81
2023/03/31 04:27:29;;;;;;;39.97;36.25;;;;;;;4.37;100.00;100965.09;5011381;28;20050;-81
2023/03/31 04:29:56;;;;;;;42.63;38.60;;;;;;;4.42;100.00;100969.88;5008378;28;20053;-80
2023/03/31 04:32:24;;;;;;;43.85;39.38;;;;;;;4.36;100.00;100973.97;5015332;28;20046;-80
2023/03/31 04:34:51;;;;;;;53.78;48.17;;;;;;;4.41;100.00;100976.94;5024455;28;20073;-81
2023/03/31 04:37:17;;;;;;;69.22;58.05;;;;;;;4.28;100.00;100973.94;5022100;28;20042;-81
2023/03/31 04:39:49;;;;;;;66.07;55.90;;;;;;;4.45;100.00;100974.81;5013301;28;20042;-80
2023/03/31 04:42:16;;;;;;;62.93;56.13;;;;;;;4.40;100.00;100972.66;5020719;28;20086;-81
2023/03/31 04:44:42;;;;;;;64.50;57.55;;;;;;;4.57;100.00;100957.78;5019122;28;20046;-81
2023/03/31 04:47:09;;;;;;;63.25;56.45;;;;;;;4.49;100.00;100971.72;5014601;28;20046;-81
2023/03/31 04:49:36;;;;;;;61.53;55.92;;;;;;;4.62;100.00;100960.72;5014324;28;20042;-82
2023/03/31 04:52:02;;;;;;;57.75;52.25;;;;;;;4.81;100.00;100963.09;5006557;28;20061;-81
2023/03/31 04:54:29;;;;;;;57.58;52.28;;;;;;;4.76;100.00;100965.38;5017447;28;20049;-81
2023/03/31 04:56:57;;;;;;;54.42;49.42;;;;;;;4.90;100.00;100958.66;5013699;28;20046;-81
2023/03/31 04:59:24;;;;;;;50.35;45.17;;;;;;;4.94;100.00;100964.41;5014524;28;20050;-81
2023/03/31 05:01:51;;;;;;;50.63;45.72;;;;;;;4.99;100.00;100967.34;5021913;28;20054;-81
2023/03/31 05:04:17;;;;;;;56.05;50.38;;;;;;;4.80;100.00;100963.22;5004221;28;20043;-81
2023/03/31 05:06:44;;;;;;;59.33;53.85;;;;;;;5.17;100.00;100957.50;5022974;28;20069;-81
2023/03/31 05:09:11;;;;;;;55.75;50.75;;;;;;;5.14;100.00;100951.75;5016431;28;20078;-81
2023/03/31 05:11:38;;;;;;;50.75;46.63;;;;;;;5.14;100.00;100949.91;5025539;28;20050;-81
2023/03/31 05:14:06;;;;;;;47.45;43.50;;;;;;;5.09;100.00;100954.06;5014732;28;20046;-81
2023/03/31 05:16:33;;;;;;;45.97;42.03;;;;;;;5.34;100.00;100947.78;5013725;28;20046;-81
2023/03/31 05:18:59;;;;;;;47.60;43.20;;;;;;;5.35;100.00;100944.16;5017473;28;20107;-81
2023/03/31 05:21:29;;;;;;;47.22;42.95;;;;;;;5.24;100.00;100934.78;5011562;28;20140;-80
2023/03/31 05:23:56;;;;;;;52.63;47.40;;;;;;;5.31;100.00;100929.69;5020676;28;20054;-80
2023/03/31 05:26:24;;;;;;;59.60;53.85;;;;;;;5.31;100.00;100926.22;5019217;28;20042;-80
2023/03/31 05:28:50;;;;;;;58.40;52.90;;;;;;;4.90;100.00;100942.88;5020650;28;20054;-81
2023/03/31 05:31:19;;;;;;;59.88;54.15;;;;;;;5.04;100.00;100941.38;5028428;28;20050;-81
2023/03/31 05:33:46;;;;;;;63.75;57.55;;;;;;;5.29;100.00;100939.56;5004570;28;20054;-80
2023/03/31 05:36:14;;;;;;;75.80;68.80;;;;;;;5.64;100.00;100935.72;5022375;28;20050;-81
2023/03/31 05:38:42;;;;;;;79.68;72.70;;;;;;;5.70;100.00;100936.88;5022955;28;20050;-81
2023/03/31 05:41:10;;;;;;;67.55;61.55;;;;;;;5.67;100.00;100940.66;5018783;28;20049;-81
2023/03/31 05:43:38;;;;;;;66.38;59.70;;;;;;;5.71;100.00;100949.03;5014822;28;20046;-81
2023/03/31 05:46:05;;;;;;;65.22;58.67;;;;;;;5.61;100.00;100937.88;5014198;28;20057;-81
2023/03/31 05:48:33;;;;;;;65.05;57.95;;;;;;;5.69;100.00;100938.69;5019752;28;20050;-81
2023/03/31 05:51:02;;;;;;;63.42;56.92;;;;;;;5.62;100.00;100939.50;5020893;28;20045;-81
2023/03/31 05:53:29;;;;;;;66.10;58.80;;;;;;;5.55;100.00;100936.72;5008432;28;20050;-81
2023/03/31 05:56:00;;;;;;;74.65;66.50;;;;;;;5.82;100.00;100929.44;5008325;28;20110;-82
2023/03/31 05:58:27;;;;;;;80.30;72.82;;;;;;;6.00;100.00;100935.31;5008419;28;20054;-81
2023/03/31 06:01:04;;;;;;;89.28;80.32;;;;;;;6.03;100.00;100934.16;5020557;28;20101;-81
2023/03/31 06:03:33;;;;;;;96.43;86.65;;;;;;;6.21;100.00;100926.03;5019926;28;20133;-81
2023/03/31 06:06:00;;;;;;;93.25;84.00;;;;;;;6.20;100.00;100925.16;5019587;28;20053;-81
2023/03/31 06:08:27;;;;;;;102.63;92.75;;;;;;;6.22;100.00;100927.66;5019424;28;20112;-80
2023/03/31 06:10:54;;;;;;;109.15;98.13;;;;;;;6.36;100.00;100929.56;5014925;28;20077;-82
2023/03/31 06:13:21;;;;;;;113.72;101.50;;;;;;;6.23;100.00;100927.47;5017782;28;20042;-80
2023/03/31 06:15:53;;;;;;;101.90;92.50;;;;;;;6.26;100.00;100928.94;5015839;28;20070;-82
2023/03/31 06:18:20;;;;;;;109.65;98.93;;;;;;;6.31;100.00;100931.91;5016682;28;20050;-80
2023/03/31 06:20:48;;;;;;;109.47;99.20;;;;;;;6.15;100.00;100915.16;5029071;28;20057;-81
2023/03/31 06:23:15;;;;;;;117.43;106.72;;;;;;;6.21;100.00;100907.56;5009844;28;20183;-81
2023/03/31 06:25:42;;;;;;;123.10;112.20;;;;;;;6.15;100.00;100917.78;5011800;28;20074;-81
2023/03/31 06:28:09;;;;;;;116.57;107.20;;;;;;;6.34;100.00;100921.00;5019241;28;20042;-81
2023/03/31 06:30:35;;;;;;;110.97;101.68;;;;;;;6.19;100.00;100913.00;5008660;28;20069;-81
2023/03/31 06:33:02;;;;;;;108.10;98.95;;;;;;;6.47;100.00;100912.50;5017014;28;20046;-81
2023/03/31 06:35:29;;;;;;;111.70;101.78;;;;;;;6.38;100.00;100911.72;5013635;28;20050;-81
2023/03/31 06:37:57;;;;;;;108.63;99.15;;;;;;;6.42;100.00;100916.50;5004716;28;20095;-81
2023/03/31 06:40:24;;;;;;;115.88;105.63;;;;;;;6.57;100.00;100911.31;5012608;28;20078;-81
2023/03/31 06:42:51;;;;;;;125.18;112.95;;;;;;;6.50;100.00;100910.34;5016419;28;20540;-81
2023/03/31 06:45:18;;;;;;;122.78;111.35;;;;;;;6.57;100.00;100916.59;5017703;28;20081;-81
2023/03/31 06:47:45;;;;;;;117.10;107.22;;;;;;;6.54;100.00;100916.94;5017736;28;20045;-81
2023/03/31 06:50:11;;;;;;;139.07;128.07;;;;;;;6.61;100.00;100920.50;5010784;28;20055;-82
2023/03/31 06:52:39;;;;;;;121.80;112.10;;;;;;;6.63;100.00;100915.88;5022303;28;20050;-81
2023/03/31 06:55:09;;;;;;;127.88;116.32;;;;;;;6.75;100.00;100915.47;5011829;28;20050;-81
2023/03/31 06:57:36;;;;;;;122.68;111.78;;;;;;;6.67;100.00;100910.25;5023225;28;20053;-81
2023/03/31 07:00:03;;;;;;;119.03;109.13;;;;;;;6.74;100.00;100898.78;5020683;28;20096;-81
2023/03/31 07:02:30;;;;;;;127.88;117.82;;;;;;;6.73;100.00;100899.00;5023849;28;20050;-81
2023/03/31 07:04:56;;;;;;;123.78;113.57;;;;;;;6.74;100.00;100892.69;5017541;28;20042;-81
2023/03/31 07:07:23;;;;;;;129.20;118.57;;;;;;;6.71;100.00;100888.59;5018316;28;20046;-80
2023/03/31 07:09:50;;;;;;;135.73;124.82;;;;;;;6.82;100.00;100892.66;5026288;28;20037;-81
2023/03/31 07:12:19;;;;;;;122.80;112.60;;;;;;;6.68;100.00;100891.59;5025908;28;20062;-81
2023/03/31 07:14:46;;;;;;;133.30;122.38;;;;;;;6.91;100.00;100883.66;5021946;28;20069;-80
2023/03/31 07:17:12;;;;;;;126.70;115.90;;;;;;;6.97;100.00;100882.94;5017158;28;20038;-80
2023/03/31 07:19:41;;;;;;;127.32;116.47;;;;;;;7.02;100.00;100871.84;5013765;28;20050;-81
2023/03/31 07:22:07;;;;;;;135.20;123.47;;;;;;;7.09;100.00;100873.59;5022224;28;20048;-81
2023/03/31 07:24:34;;;;;;;131.68;120.95;;;;;;;7.09;100.00;100873.59;5020418;28;20050;-81
2023/03/31 07:27:01;;;;;;;134.10;123.25;;;;;;;7.15;100.00;100866.78;5025057;28;20034;-80
2023/03/31 07:29:30;;;;;;;125.25;115.03;;;;;;;7.13;100.00;100871.41;5020828;28;20050;-81
2023/03/31 07:31:56;;;;;;;127.93;117.50;;;;;;;7.18;100.00;100870.91;5012792;28;20046;-81
2023/03/31 07:34:23;;;;;;;136.65;125.72;;;;;;;7.10;100.00;100862.03;5019467;28;20054;-81
2023/03/31 07:36:50;;;;;;;128.25;117.97;;;;;;;7.14;100.00;100861.66;5016978;28;20053;-81
2023/03/31 07:39:16;;;;;;;124.60;114.43;;;;;;;7.27;100.00;100853.97;5019118;28;20104;-81
2023/03/31 07:41:43;;;;;;;140.25;129.02;;;;;;;7.32;100.00;100849.78;5020625;28;20045;-81
2023/03/31 07:44:13;;;;;;;135.77;124.75;;;;;;;7.21;100.00;100842.28;5012515;28;20487;-82
2023/03/31 07:46:42;;;;;;;131.55;120.95;;;;;;;7.34;100.00;100841.66;5013271;28;20053;-81
2023/03/31 07:49:09;;;;;;;131.95;121.15;;;;;;;7.40;100.00;100835.66;5015634;28;20050;-81
2023/03/31 07:51:36;;;;;;;138.52;127.15;;;;;;;7.50;100.00;100833.56;5016291;28;20046;-81
2023/03/31 07:54:02;;;;;;;141.98;129.55;;;;;;;7.70;100.00;100825.88;5011460;28;20054;-81
2023/03/31 07:56:29;;;;;;;149.05;136.23;;;;;;;7.84;100.00;100818.09;5022756;28;20057;-81
2023/03/31 07:58:56;;;;;;;144.70;132.20;;;;;;;7.94;100.00;100808.06;5018989;28;20081;-81
2023/03/31 08:01:24;;;;;;;480.27;269.65;;;;;;;8.18;100.00;100809.53;5024958;28;20478;-81
2023/03/31 08:03:53;;;;;;;179.25;164.10;;;;;;;8.08;100.00;100806.38;5018290;28;20046;-82
2023/03/31 08:06:21;;;;;;;185.77;170.85;;;;;;;8.15;100.00;100813.38;5018424;28;20110;-81
2023/03/31 08:08:48;;;;;;;181.23;165.85;;;;;;;8.27;100.00;100789.91;5021700;28;20065;-81
2023/03/31 08:11:15;;;;;;;164.90;150.95;;;;;;;8.54;100.00;100791.00;5014063;28;20046;-81
2023/03/31 08:13:42;;;;;;;281.95;250.75;;;;;;;8.97;100.00;100787.44;5019901;28;20110;-81
2023/03/31 08:16:09;;;;;;;208.68;193.10;;;;;;;9.36;100.00;100771.78;5015453;28;20046;-81
2023/03/31 08:18:35;;;;;;;204.18;188.55;;;;;;;9.52;100.00;100772.47;5015881;28;20047;-81
2023/03/31 08:21:04;;;;;;;208.55;193.15;;;;;;;9.89;100.00;100762.38;5017171;28;20050;-81
2023/03/31 08:23:30;;;;;;;205.90;190.23;;;;;;;10.30;100.00;100751.69;5018737;28;20065;-81
2023/03/31 08:26:08;;;;;;;211.73;195.52;;;;;;;10.75;100.00;100747.38;5028592;28;20030;-81
2023/03/31 08:28:34;;;;;;;232.88;215.57;;;;;;;10.83;100.00;100735.69;5012672;28;20076;-82
2023/03/31 08:31:04;;;;;;;215.40;199.90;;;;;;;10.94;100.00;100740.41;5014824;28;20046;-82
2023/03/31 08:33:31;;;;;;;200.25;185.95;;;;;;;11.03;100.00;100726.91;5018503;28;20054;-81
2023/03/31 08:36:04;;;;;;;183.48;170.23;;;;;;;10.86;100.00;100730.00;5016378;28;20073;-81
2023/03/31 08:38:31;;;;;;;177.68;164.95;;;;;;;10.78;100.00;100728.38;5015096;28;20511;-83
2023/03/31 08:41:02;;;;;;;182.35;169.82;;;;;;;10.97;100.00;100717.91;5009234;28;20050;-84
2023/03/31 08:43:33;;;;;;;182.18;169.07;;;;;;;11.17;100.00;100712.53;5005558;28;20099;-83
2023/03/31 08:46:02;;;;;;;185.80;172.88;;;;;;;11.19;100.00;100707.81;5010658;28;20042;-83
2023/03/31 08:48:32;;;;;;;215.15;199.95;;;;;;;11.22;100.00;100715.38;5004616;28;20046;-83
2023/03/31 08:51:04;;;;;;;186.40;173.27;;;;;;;11.42;100.00;100704.66;5010931;28;20057;-83
2023/03/31 08:53:35;;;;;;;178.80;166.63;;;;;;;11.44;100.00;100691.97;5009046;28;20076;-84
2023/03/31 08:56:07;;;;;;;172.70;160.70;;;;;;;11.54;100.00;100691.53;5006237;28;20073;-84
2023/03/31 08:58:39;;;;;;;145.70;135.97;;;;;;;11.44;100.00;100676.03;5015722;28;20085;-84
2023/03/31 09:01:15;;;;;;;145.88;136.18;;;;;;;11.78;100.00;100679.31;5014272;28;20053;-84
2023/03/31 09:03:51;;;;;;;150.25;140.43;;;;;;;12.05;100.00;100672.00;5013323;28;20538;-83
2023/03/31 09:06:27;;;;;;;114.70;106.70;;;;;;;12.05;100.00;100672.81;5019192;28;20050;-83
2023/03/31 09:08:58;;;;;;;61.28;56.47;;;;;;;11.90;100.00;100665.13;5017807;28;20121;-83
2023/03/31 09:11:30;;;;;;;83.85;77.85;;;;;;;11.91;100.00;100657.94;5011261;28;20050;-81
2023/03/31 09:14:26;;;;;;;73.93;68.38;;;;;;;11.94;100.00;100654.84;5018173;28;20039;-84
2023/03/31 09:17:10;;;;;;;70.32;64.63;;;;;;;12.18;100.00;100650.56;5003556;28;20496;-84
2023/03/31 09:19:39;;;;;;;77.75;71.85;;;;;;;12.30;100.00;100650.69;5011119;28;20046;-83
2023/03/31 09:22:14;;;;;;;84.22;78.53;;;;;;;12.51;100.00;100657.47;5019675;28;20047;-84
2023/03/31 09:24:49;;;;;;;91.32;85.05;;;;;;;13.31;100.00;100649.38;5017343;28;20050;-84
2023/03/31 09:27:16;;;;;;;87.60;81.40;;;;;;;13.03;100.00;100649.91;5007678;28;20043;-84
2023/03/31 09:29:48;;;;;;;58.90;54.30;;;;;;;12.82;100.00;100632.53;5018174;28;20057;-83
2023/03/31 09:32:17;;;;;;;63.08;57.97;;;;;;;12.67;100.00;100630.22;5014112;28;20054;-82
2023/03/31 09:34:46;;;;;;;59.60;55.03;;;;;;;13.64;100.00;100630.25;5019113;28;20093;-84
2023/03/31 09:37:14;;;;;;;47.72;43.97;;;;;;;13.99;100.00;100624.16;5008581;28;20479;-84
2023/03/31 09:39:41;;;;;;;47.42;44.08;;;;;;;14.16;100.00;100613.59;5011141;28;20046;-84
2023/03/31 09:42:12;;;;;;;43.58;40.30;;;;;;;15.21;100.00;100609.97;5013455;28;20050;-84
2023/03/31 09:44:41;;;;;;;33.55;30.95;;;;;;;14.64;100.00;100604.53;5011036;28;20578;-84
2023/03/31 09:47:15;;;;;;;31.45;28.92;;;;;;;14.18;100.00;100601.66;5014896;28;20054;-84
2023/03/31 09:49:45;;;;;;;43.72;40.42;;;;;;;14.64;100.00;100597.34;5020555;28;20046;-84
2023/03/31 09:52:22;;;;;;;37.72;35.03;;;;;;;14.65;100.00;100598.97;5009513;28;20073;-84
2023/03/31 09:54:51;;;;;;;35.30;32.60;;;;;;;13.83;100.00;100595.47;5015066;28;20069;-83
2023/03/31 09:57:25;;;;;;;41.35;38.05;;;;;;;14.06;100.00;100590.16;5015363;28;20053;-84
2023/03/31 09:59:52;;;;;;;40.65;37.65;;;;;;;14.41;100.00;100597.34;5008550;28;20535;-84
2023/03/31 10:02:36;;;;;;;40.00;36.78;;;;;;;15.41;100.00;100590.78;5014794;28;20058;-83
2023/03/31 10:05:05;;;;;;;39.55;36.67;;;;;;;15.59;100.00;100589.78;5017795;28;20077;-84
2023/03/31 10:07:35;;;;;;;32.50;30.05;;;;;;;14.41;100.00;100587.47;5022094;28;20559;-84
2023/03/31 10:10:02;;;;;;;38.35;35.35;;;;;;;15.67;100.00;100591.22;5012417;28;20070;-84
2023/03/31 10:12:31;;;;;;;38.38;35.15;;;;;;;14.73;100.00;100580.94;5010515;28;20042;-84
2023/03/31 10:15:17;;;;;;;48.72;44.92;;;;;;;14.87;100.00;100577.75;5014141;28;20042;-84
2023/03/31 10:17:46;;;;;;;38.97;36.08;;;;;;;14.65;100.00;100566.91;5008755;28;20125;-85
2023/03/31 10:20:32;;;;;;;40.05;37.47;;;;;;;14.40;100.00;100585.84;5015797;28;20519;-84
2023/03/31 10:23:06;;;;;;;46.17;43.20;;;;;;;13.44;100.00;100579.84;5012634;28;20093;-84
2023/03/31 10:25:34;;;;;;;48.45;45.10;;;;;;;13.12;100.00;100581.91;5007896;28;20042;-84
2023/03/31 10:28:02;;;;;;;43.70;40.85;;;;;;;13.01;100.00;100583.50;5020401;28;20073;-83
2023/03/31 10:30:36;;;;;;;38.72;36.50;;;;;;;12.78;100.00;100584.19;5011344;28;20070;-84
2023/03/31 10:33:06;;;;;;;45.90;42.08;;;;;;;13.43;100.00;100572.88;5012919;28;20104;-84
2023/03/31 10:35:36;;;;;;;29.27;27.02;;;;;;;12.96;100.00;100571.88;5011812;28;20057;-83
2023/03/31 10:38:07;;;;;;;41.80;38.90;;;;;;;15.07;100.00;100571.19;5002562;28;20061;-84
2023/03/31 10:40:36;;;;;;;48.92;45.10;;;;;;;14.78;100.00;100554.31;5013627;28;20054;-83
2023/03/31 10:43:10;;;;;;;42.17;38.88;;;;;;;15.08;100.00;100559.44;5017329;28;20111;-82
2023/03/31 10:45:38;;;;;;;35.13;32.53;;;;;;;14.87;100.00;100548.34;5011060;28;20554;-84
2023/03/31 10:48:06;;;;;;;43.80;40.30;;;;;;;15.48;100.00;100550.50;5012221;28;20074;-84
2023/03/31 10:50:36;;;;;;;34.97;32.40;;;;;;;15.47;100.00;100536.31;4999353;28;20050;-84
2023/03/31 10:53:07;;;;;;;34.65;32.28;;;;;;;15.30;100.00;100538.94;5006645;28;20046;-84
2023/03/31 10:55:46;;;;;;;40.45;37.28;;;;;;;14.92;100.00;100536.09;5003473;28;20092;-84
2023/03/31 10:58:27;;;;;;;48.53;44.80;;;;;;;15.23;100.00;100524.94;5011034;28;20466;-84
2023/03/31 11:01:08;;;;;;;43.33;39.85;;;;;;;15.10;100.00;100525.25;5007297;28;20042;-84
2023/03/31 11:04:06;;;;;;;29.00;27.02;;;;;;;14.57;100.00;100499.63;5008055;28;20133;-84
2023/03/31 11:06:46;;;;;;;44.78;41.47;;;;;;;15.89;100.00;100495.75;4997128;28;20508;-85
2023/03/31 11:09:28;;;;;;;46.58;43.10;;;;;;;16.44;100.00;100494.06;5022005;28;20152;-84
2023/03/31 11:12:05;;;;;;;42.00;39.20;;;;;;;16.54;100.00;100494.16;5014526;28;20049;-85
2023/03/31 11:14:45;;;;;;;36.03;33.53;;;;;;;16.50;100.00;100482.31;5014939;28;20057;-85
2023/03/31 11:17:25;;;;;;;29.83;27.58;;;;;;;16.64;100.00;100483.56;5012614;28;20050;-84
2023/03/31 11:20:01;;;;;;;38.80;35.83;;;;;;;16.14;100.00;100475.72;5011506;28;20073;-84